sensor_id;sensor_type;location;lat;lon;timestamp;noise_LAeq;noise_LA_min;noise_LA_max;noise_LA01;noise_LA95
70454;Laerm;57915;47.174;14.680;2023-03-24T00:00:01;42.24;39.71;51.10;;
70454;Laerm;57915;47.174;14.680;2023-03-24T00:01:04;41.86;39.54;46.69;;
70454;Laerm;57915;47.174;14.680;2023-03-24T00:02:06;41.48;39.65;44.68;;
70454;Laerm;57915;47.174;14.680;2023-03-24T00:03:07;41.14;39.63;43.19;;
70454;Laerm;57915;47.174;14.680;2023-03-24T00:04:09;41.28;39.48;44.30;;
70454;Laerm;57915;47.174;14.680;2023-03-24T00:05:11;40.75;38.96;42.96;;
70454;Laerm;57915;47.174;14.680;2023-03-24T00:06:13;41.36;39.63;43.18;;
70454;Laerm;57915;47.174;14.680;2023-03-24T00:07:13;40.98;39.33;43.21;;
70454;Laerm;57915;47.174;14.680;2023-03-24T00:08:15;40.89;39.29;43.39;;
70454;Laerm;57915;47.174;14.680;2023-03-24T00:09:16;41.65;39.61;46.27;;
70454;Laerm;57915;47.174;14.680;2023-03-24T00:10:18;41.37;39.57;44.06;;
70454;Laerm;57915;47.174;14.680;2023-03-24T00:11:19;45.00;39.79;58.73;;
70454;Laerm;57915;47.174;14.680;2023-03-24T00:12:21;57.74;39.49;71.92;;
70454;Laerm;57915;47.174;14.680;2023-03-24T00:13:21;41.01;39.54;43.51;;
70454;Laerm;57915;47.174;14.680;2023-03-24T00:14:24;41.39;39.77;46.60;;
70454;Laerm;57915;47.174;14.680;2023-03-24T00:15:25;40.79;39.48;44.26;;
70454;Laerm;57915;47.174;14.680;2023-03-24T00:16:28;41.10;39.28;46.50;;
70454;Laerm;57915;47.174;14.680;2023-03-24T00:17:28;40.57;39.04;43.90;;
70454;Laerm;57915;47.174;14.680;2023-03-24T00:18:30;40.58;39.07;42.81;;
70454;Laerm;57915;47.174;14.680;2023-03-24T00:19:31;40.48;39.22;43.64;;
70454;Laerm;57915;47.174;14.680;2023-03-24T00:20:37;40.31;39.30;41.62;;
70454;Laerm;57915;47.174;14.680;2023-03-24T00:21:38;40.61;39.09;45.47;;
70454;Laerm;57915;47.174;14.680;2023-03-24T00:22:41;41.20;39.51;52.67;;
70454;Laerm;57915;47.174;14.680;2023-03-24T00:23:41;61.51;39.75;75.58;;
70454;Laerm;57915;47.174;14.680;2023-03-24T00:24:43;48.76;40.63;63.06;;
70454;Laerm;57915;47.174;14.680;2023-03-24T00:25:45;46.08;41.47;51.78;;
70454;Laerm;57915;47.174;14.680;2023-03-24T00:26:48;42.00;40.25;46.52;;
70454;Laerm;57915;47.174;14.680;2023-03-24T00:27:50;41.64;39.98;45.01;;
70454;Laerm;57915;47.174;14.680;2023-03-24T00:28:52;41.85;39.92;46.36;;
70454;Laerm;57915;47.174;14.680;2023-03-24T00:29:55;54.43;40.45;68.99;;
70454;Laerm;57915;47.174;14.680;2023-03-24T00:30:58;41.96;39.80;45.52;;
70454;Laerm;57915;47.174;14.680;2023-03-24T00:31:59;41.70;39.92;45.75;;
70454;Laerm;57915;47.174;14.680;2023-03-24T00:33:00;41.87;40.15;44.26;;
70454;Laerm;57915;47.174;14.680;2023-03-24T00:34:01;41.07;39.71;43.42;;
70454;Laerm;57915;47.174;14.680;2023-03-24T00:35:05;41.24;39.81;43.48;;
70454;Laerm;57915;47.174;14.680;2023-03-24T00:36:08;41.11;39.68;42.81;;
70454;Laerm;57915;47.174;14.680;2023-03-24T00:37:11;41.95;40.08;44.06;;
70454;Laerm;57915;47.174;14.680;2023-03-24T00:38:13;41.42;39.79;48.59;;
70454;Laerm;57915;47.174;14.680;2023-03-24T00:39:14;41.27;39.72;43.04;;
70454;Laerm;57915;47.174;14.680;2023-03-24T00:40:16;41.45;40.20;43.10;;
70454;Laerm;57915;47.174;14.680;2023-03-24T00:41:18;42.00;40.33;44.44;;
70454;Laerm;57915;47.174;14.680;2023-03-24T00:42:20;41.49;40.03;43.41;;
70454;Laerm;57915;47.174;14.680;2023-03-24T00:43:21;41.35;40.06;42.90;;
70454;Laerm;57915;47.174;14.680;2023-03-24T00:44:26;51.27;40.06;62.89;;
70454;Laerm;57915;47.174;14.680;2023-03-24T00:45:28;42.12;40.21;44.91;;
70454;Laerm;57915;47.174;14.680;2023-03-24T00:46:33;42.09;40.20;44.67;;
70454;Laerm;57915;47.174;14.680;2023-03-24T00:47:34;41.73;39.46;48.69;;
70454;Laerm;57915;47.174;14.680;2023-03-24T00:48:37;42.52;40.54;51.78;;
70454;Laerm;57915;47.174;14.680;2023-03-24T00:49:41;41.96;40.12;47.02;;
70454;Laerm;57915;47.174;14.680;2023-03-24T00:50:44;42.15;40.38;53.52;;
70454;Laerm;57915;47.174;14.680;2023-03-24T00:51:45;42.29;40.12;45.78;;
70454;Laerm;57915;47.174;14.680;2023-03-24T00:52:46;41.51;40.07;43.48;;
70454;Laerm;57915;47.174;14.680;2023-03-24T00:53:48;41.86;40.03;44.40;;
70454;Laerm;57915;47.174;14.680;2023-03-24T00:54:50;41.73;39.97;47.03;;
70454;Laerm;57915;47.174;14.680;2023-03-24T00:55:54;41.90;39.97;46.52;;
70454;Laerm;57915;47.174;14.680;2023-03-24T00:56:56;42.57;40.09;48.45;;
70454;Laerm;57915;47.174;14.680;2023-03-24T00:57:56;42.05;40.29;45.43;;
70454;Laerm;57915;47.174;14.680;2023-03-24T00:59:00;41.03;39.44;42.90;;
70454;Laerm;57915;47.174;14.680;2023-03-24T01:00:02;41.19;39.61;43.42;;
70454;Laerm;57915;47.174;14.680;2023-03-24T01:01:12;41.80;39.95;44.31;;
70454;Laerm;57915;47.174;14.680;2023-03-24T01:02:13;40.87;39.52;43.37;;
70454;Laerm;57915;47.174;14.680;2023-03-24T01:03:15;41.64;39.60;44.00;;
70454;Laerm;57915;47.174;14.680;2023-03-24T01:04:16;45.92;41.35;50.65;;
70454;Laerm;57915;47.174;14.680;2023-03-24T01:05:20;48.34;40.13;55.91;;
70454;Laerm;57915;47.174;14.680;2023-03-24T01:06:21;41.10;39.55;42.85;;
70454;Laerm;57915;47.174;14.680;2023-03-24T01:07:24;53.99;39.62;66.50;;
70454;Laerm;57915;47.174;14.680;2023-03-24T01:08:25;45.27;39.38;57.04;;
70454;Laerm;57915;47.174;14.680;2023-03-24T01:09:27;49.35;40.48;57.86;;
70454;Laerm;57915;47.174;14.680;2023-03-24T01:10:28;46.91;42.48;55.47;;
70454;Laerm;57915;47.174;14.680;2023-03-24T01:11:33;41.84;39.45;47.25;;
70454;Laerm;57915;47.174;14.680;2023-03-24T01:12:34;41.02;39.31;43.62;;
70454;Laerm;57915;47.174;14.680;2023-03-24T01:13:36;41.28;39.50;51.55;;
70454;Laerm;57915;47.174;14.680;2023-03-24T01:14:37;44.39;39.44;51.58;;
70454;Laerm;57915;47.174;14.680;2023-03-24T01:15:38;41.80;39.35;45.35;;
70454;Laerm;57915;47.174;14.680;2023-03-24T01:16:40;40.53;39.20;42.34;;
70454;Laerm;57915;47.174;14.680;2023-03-24T01:17:42;40.79;39.28;43.82;;
70454;Laerm;57915;47.174;14.680;2023-03-24T01:18:43;40.95;39.40;43.93;;
70454;Laerm;57915;47.174;14.680;2023-03-24T01:19:44;40.84;39.40;43.37;;
70454;Laerm;57915;47.174;14.680;2023-03-24T01:20:45;40.73;39.10;46.05;;
70454;Laerm;57915;47.174;14.680;2023-03-24T01:21:48;39.81;38.57;43.55;;
70454;Laerm;57915;47.174;14.680;2023-03-24T01:22:50;40.09;38.73;44.31;;
70454;Laerm;57915;47.174;14.680;2023-03-24T01:23:52;39.93;38.58;42.09;;
70454;Laerm;57915;47.174;14.680;2023-03-24T01:24:52;39.67;38.56;41.06;;
70454;Laerm;57915;47.174;14.680;2023-03-24T01:25:54;40.15;38.63;44.14;;
70454;Laerm;57915;47.174;14.680;2023-03-24T01:26:54;39.68;38.24;42.31;;
70454;Laerm;57915;47.174;14.680;2023-03-24T01:27:56;39.45;38.36;41.46;;
70454;Laerm;57915;47.174;14.680;2023-03-24T01:28:56;39.60;38.50;42.06;;
70454;Laerm;57915;47.174;14.680;2023-03-24T01:29:58;39.50;38.43;42.04;;
70454;Laerm;57915;47.174;14.680;2023-03-24T01:30:59;39.46;38.50;40.66;;
70454;Laerm;57915;47.174;14.680;2023-03-24T01:32:02;57.78;38.50;70.49;;
70454;Laerm;57915;47.174;14.680;2023-03-24T01:33:02;40.36;38.37;46.59;;
70454;Laerm;57915;47.174;14.680;2023-03-24T01:34:04;58.05;39.03;71.21;;
70454;Laerm;57915;47.174;14.680;2023-03-24T01:35:06;40.23;38.84;42.05;;
70454;Laerm;57915;47.174;14.680;2023-03-24T01:36:07;40.32;38.64;42.77;;
70454;Laerm;57915;47.174;14.680;2023-03-24T01:37:08;39.40;38.25;42.70;;
70454;Laerm;57915;47.174;14.680;2023-03-24T01:38:09;39.94;38.24;43.03;;
70454;Laerm;57915;47.174;14.680;2023-03-24T01:39:11;39.08;38.13;40.34;;
70454;Laerm;57915;47.174;14.680;2023-03-24T01:40:14;39.26;38.17;40.96;;
70454;Laerm;57915;47.174;14.680;2023-03-24T01:41:17;39.56;38.33;41.52;;
70454;Laerm;57915;47.174;14.680;2023-03-24T01:42:18;41.20;38.89;45.62;;
70454;Laerm;57915;47.174;14.680;2023-03-24T01:43:21;39.83;38.54;42.60;;
70454;Laerm;57915;47.174;14.680;2023-03-24T01:44:22;39.78;38.27;43.23;;
70454;Laerm;57915;47.174;14.680;2023-03-24T01:46:55;39.35;38.26;41.39;;
70454;Laerm;57915;47.174;14.680;2023-03-24T01:47:58;39.32;38.27;40.56;;
70454;Laerm;57915;47.174;14.680;2023-03-24T01:49:00;39.57;38.41;41.94;;
70454;Laerm;57915;47.174;14.680;2023-03-24T01:50:03;40.03;38.78;42.23;;
70454;Laerm;57915;47.174;14.680;2023-03-24T01:51:05;57.46;39.37;70.68;;
70454;Laerm;57915;47.174;14.680;2023-03-24T01:52:08;47.70;39.39;58.09;;
70454;Laerm;57915;47.174;14.680;2023-03-24T01:53:11;43.47;39.45;57.75;;
70454;Laerm;57915;47.174;14.680;2023-03-24T01:54:13;41.79;39.69;54.54;;
70454;Laerm;57915;47.174;14.680;2023-03-24T01:55:17;41.26;39.31;44.68;;
70454;Laerm;57915;47.174;14.680;2023-03-24T01:56:19;41.23;39.48;44.24;;
70454;Laerm;57915;47.174;14.680;2023-03-24T01:57:21;42.95;40.69;52.04;;
70454;Laerm;57915;47.174;14.680;2023-03-24T01:58:24;42.95;40.67;46.07;;
70454;Laerm;57915;47.174;14.680;2023-03-24T01:59:29;43.08;41.00;45.15;;
70454;Laerm;57915;47.174;14.680;2023-03-24T02:00:30;41.77;39.85;45.45;;
70454;Laerm;57915;47.174;14.680;2023-03-24T02:01:31;42.22;40.52;46.10;;
70454;Laerm;57915;47.174;14.680;2023-03-24T02:02:32;44.24;41.39;49.58;;
70454;Laerm;57915;47.174;14.680;2023-03-24T02:03:36;54.47;42.11;66.46;;
70454;Laerm;57915;47.174;14.680;2023-03-24T02:04:40;45.73;41.20;57.20;;
70454;Laerm;57915;47.174;14.680;2023-03-24T02:05:43;44.97;42.07;50.85;;
70454;Laerm;57915;47.174;14.680;2023-03-24T02:06:45;44.95;41.31;50.80;;
70454;Laerm;57915;47.174;14.680;2023-03-24T02:07:49;45.62;41.73;53.05;;
70454;Laerm;57915;47.174;14.680;2023-03-24T02:08:51;43.03;40.77;48.52;;
70454;Laerm;57915;47.174;14.680;2023-03-24T02:09:54;43.45;40.33;51.37;;
70454;Laerm;57915;47.174;14.680;2023-03-24T02:10:55;43.52;40.85;52.77;;
70454;Laerm;57915;47.174;14.680;2023-03-24T02:11:57;43.79;40.54;56.89;;
70454;Laerm;57915;47.174;14.680;2023-03-24T02:12:58;42.98;40.62;53.90;;
70454;Laerm;57915;47.174;14.680;2023-03-24T02:13:59;43.23;40.78;53.57;;
70454;Laerm;57915;47.174;14.680;2023-03-24T02:15:00;43.34;40.52;52.93;;
70454;Laerm;57915;47.174;14.680;2023-03-24T02:16:07;43.13;40.50;53.80;;
70454;Laerm;57915;47.174;14.680;2023-03-24T02:17:26;43.59;40.27;54.56;;
70454;Laerm;57915;47.174;14.680;2023-03-24T02:18:34;43.71;40.23;52.99;;
70454;Laerm;57915;47.174;14.680;2023-03-24T02:19:49;44.14;40.78;54.26;;
70454;Laerm;57915;47.174;14.680;2023-03-24T02:21:05;44.76;40.90;53.68;;
70454;Laerm;57915;47.174;14.680;2023-03-24T02:22:22;43.89;40.00;52.84;;
70454;Laerm;57915;47.174;14.680;2023-03-24T02:26:09;49.52;40.50;58.31;;
70454;Laerm;57915;47.174;14.680;2023-03-24T02:27:23;47.05;41.55;55.47;;
70454;Laerm;57915;47.174;14.680;2023-03-24T02:28:35;44.80;41.08;56.71;;
70454;Laerm;57915;47.174;14.680;2023-03-24T02:29:59;44.47;40.62;57.49;;
70454;Laerm;57915;47.174;14.680;2023-03-24T02:36:50;43.67;40.58;54.07;;
70454;Laerm;57915;47.174;14.680;2023-03-24T02:40:32;52.22;40.49;64.71;;
70454;Laerm;57915;47.174;14.680;2023-03-24T02:41:34;44.74;40.54;55.94;;
70454;Laerm;57915;47.174;14.680;2023-03-24T02:42:40;45.16;40.90;58.76;;
70454;Laerm;57915;47.174;14.680;2023-03-24T02:43:46;44.96;40.59;56.15;;
70454;Laerm;57915;47.174;14.680;2023-03-24T02:44:53;56.97;41.38;68.58;;
70454;Laerm;57915;47.174;14.680;2023-03-24T02:46:03;58.60;41.82;72.84;;
70454;Laerm;57915;47.174;14.680;2023-03-24T02:47:08;44.36;40.59;55.99;;
70454;Laerm;57915;47.174;14.680;2023-03-24T02:48:16;43.20;40.36;52.10;;
70454;Laerm;57915;47.174;14.680;2023-03-24T02:49:20;44.11;40.66;52.61;;
70454;Laerm;57915;47.174;14.680;2023-03-24T02:50:29;46.01;42.03;58.83;;
70454;Laerm;57915;47.174;14.680;2023-03-24T02:51:34;43.96;40.98;54.90;;
70454;Laerm;57915;47.174;14.680;2023-03-24T02:52:41;44.54;41.60;54.88;;
70454;Laerm;57915;47.174;14.680;2023-03-24T02:53:46;43.71;40.76;53.03;;
70454;Laerm;57915;47.174;14.680;2023-03-24T02:54:52;45.94;41.35;59.46;;
70454;Laerm;57915;47.174;14.680;2023-03-24T02:55:59;43.90;39.54;52.58;;
70454;Laerm;57915;47.174;14.680;2023-03-24T02:57:04;46.18;40.77;55.58;;
70454;Laerm;57915;47.174;14.680;2023-03-24T02:58:06;55.93;41.10;70.17;;
70454;Laerm;57915;47.174;14.680;2023-03-24T02:59:10;45.12;40.87;57.10;;
70454;Laerm;57915;47.174;14.680;2023-03-24T03:00:16;49.02;43.92;55.96;;
70454;Laerm;57915;47.174;14.680;2023-03-24T03:01:21;45.46;41.72;54.75;;
70454;Laerm;57915;47.174;14.680;2023-03-24T03:02:31;52.07;41.59;65.25;;
70454;Laerm;57915;47.174;14.680;2023-03-24T03:03:34;58.91;42.28;70.40;;
70454;Laerm;57915;47.174;14.680;2023-03-24T03:04:38;46.36;42.33;53.93;;
70454;Laerm;57915;47.174;14.680;2023-03-24T03:05:46;52.11;41.57;64.00;;
70454;Laerm;57915;47.174;14.680;2023-03-24T03:06:50;56.61;42.85;67.14;;
70454;Laerm;57915;47.174;14.680;2023-03-24T03:07:54;54.43;42.77;65.88;;
70454;Laerm;57915;47.174;14.680;2023-03-24T03:08:57;56.53;42.43;70.35;;
70454;Laerm;57915;47.174;14.680;2023-03-24T03:10:02;49.47;41.86;66.40;;
70454;Laerm;57915;47.174;14.680;2023-03-24T03:11:07;53.13;41.31;66.51;;
70454;Laerm;57915;47.174;14.680;2023-03-24T03:12:09;46.45;41.29;56.23;;
70454;Laerm;57915;47.174;14.680;2023-03-24T03:13:13;44.84;41.02;55.59;;
70454;Laerm;57915;47.174;14.680;2023-03-24T03:14:19;53.18;40.46;65.48;;
70454;Laerm;57915;47.174;14.680;2023-03-24T03:15:22;43.78;40.74;53.91;;
70454;Laerm;57915;47.174;14.680;2023-03-24T03:16:27;55.65;40.80;68.13;;
70454;Laerm;57915;47.174;14.680;2023-03-24T03:17:34;45.05;40.66;53.78;;
70454;Laerm;57915;47.174;14.680;2023-03-24T03:18:39;44.40;40.67;52.87;;
70454;Laerm;57915;47.174;14.680;2023-03-24T03:19:42;43.96;40.50;53.50;;
70454;Laerm;57915;47.174;14.680;2023-03-24T03:20:47;55.23;41.83;66.72;;
70454;Laerm;57915;47.174;14.680;2023-03-24T03:21:52;44.98;41.43;55.23;;
70454;Laerm;57915;47.174;14.680;2023-03-24T03:22:55;45.59;41.60;58.14;;
70454;Laerm;57915;47.174;14.680;2023-03-24T03:23:59;44.12;41.14;52.77;;
70454;Laerm;57915;47.174;14.680;2023-03-24T03:25:02;49.55;41.81;64.44;;
70454;Laerm;57915;47.174;14.680;2023-03-24T03:26:04;53.39;45.49;65.86;;
70454;Laerm;57915;47.174;14.680;2023-03-24T03:27:09;57.35;41.56;70.96;;
70454;Laerm;57915;47.174;14.680;2023-03-24T03:28:14;58.22;42.88;71.07;;
70454;Laerm;57915;47.174;14.680;2023-03-24T03:29:20;47.42;42.26;61.12;;
70454;Laerm;57915;47.174;14.680;2023-03-24T03:30:23;45.64;42.44;55.55;;
70454;Laerm;57915;47.174;14.680;2023-03-24T03:31:28;45.82;42.15;55.08;;
70454;Laerm;57915;47.174;14.680;2023-03-24T03:32:30;56.49;42.06;69.08;;
70454;Laerm;57915;47.174;14.680;2023-03-24T03:33:34;54.67;41.99;66.74;;
70454;Laerm;57915;47.174;14.680;2023-03-24T03:34:36;59.14;43.50;71.78;;
70454;Laerm;57915;47.174;14.680;2023-03-24T03:35:41;59.88;43.56;71.13;;
70454;Laerm;57915;47.174;14.680;2023-03-24T03:36:46;47.21;42.21;59.04;;
70454;Laerm;57915;47.174;14.680;2023-03-24T03:37:49;53.26;41.80;63.76;;
70454;Laerm;57915;47.174;14.680;2023-03-24T03:38:53;60.12;44.56;72.07;;
70454;Laerm;57915;47.174;14.680;2023-03-24T03:39:57;60.23;42.94;72.33;;
70454;Laerm;57915;47.174;14.680;2023-03-24T03:41:00;48.91;41.05;64.22;;
70454;Laerm;57915;47.174;14.680;2023-03-24T03:42:03;46.87;40.99;56.27;;
70454;Laerm;57915;47.174;14.680;2023-03-24T03:43:07;43.50;40.85;54.77;;
70454;Laerm;57915;47.174;14.680;2023-03-24T03:44:08;47.28;41.16;56.04;;
70454;Laerm;57915;47.174;14.680;2023-03-24T03:45:09;44.68;40.74;57.94;;
70454;Laerm;57915;47.174;14.680;2023-03-24T03:46:12;56.37;40.43;71.70;;
70454;Laerm;57915;47.174;14.680;2023-03-24T03:47:13;60.38;42.22;70.56;;
70454;Laerm;57915;47.174;14.680;2023-03-24T03:48:15;57.17;42.77;67.58;;
70454;Laerm;57915;47.174;14.680;2023-03-24T03:49:16;45.65;42.05;58.83;;
70454;Laerm;57915;47.174;14.680;2023-03-24T03:50:18;60.92;43.99;73.34;;
70454;Laerm;57915;47.174;14.680;2023-03-24T03:51:18;58.18;43.24;70.76;;
70454;Laerm;57915;47.174;14.680;2023-03-24T03:52:20;45.54;42.23;54.48;;
70454;Laerm;57915;47.174;14.680;2023-03-24T03:53:22;58.05;43.20;73.71;;
70454;Laerm;57915;47.174;14.680;2023-03-24T03:54:26;46.88;42.77;54.71;;
70454;Laerm;57915;47.174;14.680;2023-03-24T03:55:28;54.84;41.92;65.92;;
70454;Laerm;57915;47.174;14.680;2023-03-24T03:56:32;46.58;42.79;55.46;;
70454;Laerm;57915;47.174;14.680;2023-03-24T03:57:33;47.35;42.51;54.14;;
70454;Laerm;57915;47.174;14.680;2023-03-24T03:58:37;55.44;42.26;68.50;;
70454;Laerm;57915;47.174;14.680;2023-03-24T03:59:39;46.70;42.08;54.73;;
70454;Laerm;57915;47.174;14.680;2023-03-24T04:00:40;61.70;42.34;73.09;;
70454;Laerm;57915;47.174;14.680;2023-03-24T04:01:43;57.93;42.34;71.60;;
70454;Laerm;57915;47.174;14.680;2023-03-24T04:02:50;55.36;44.73;66.86;;
70454;Laerm;57915;47.174;14.680;2023-03-24T04:04:01;58.00;45.27;67.77;;
70454;Laerm;57915;47.174;14.680;2023-03-24T04:05:09;50.87;42.65;58.93;;
70454;Laerm;57915;47.174;14.680;2023-03-24T04:06:14;47.25;42.33;56.83;;
70454;Laerm;57915;47.174;14.680;2023-03-24T04:07:20;57.06;43.64;64.88;;
70454;Laerm;57915;47.174;14.680;2023-03-24T04:08:24;57.04;44.12;67.13;;
70454;Laerm;57915;47.174;14.680;2023-03-24T04:09:32;58.05;44.35;68.95;;
70454;Laerm;57915;47.174;14.680;2023-03-24T04:10:39;56.52;44.45;66.26;;
70454;Laerm;57915;47.174;14.680;2023-03-24T04:11:51;53.78;43.58;65.40;;
70454;Laerm;57915;47.174;14.680;2023-03-24T04:13:04;56.00;45.32;67.58;;
70454;Laerm;57915;47.174;14.680;2023-03-24T04:14:21;63.18;46.12;72.89;;
70454;Laerm;57915;47.174;14.680;2023-03-24T04:15:32;57.28;44.17;69.56;;
70454;Laerm;57915;47.174;14.680;2023-03-24T04:16:36;56.74;44.21;69.44;;
70454;Laerm;57915;47.174;14.680;2023-03-24T04:17:48;55.97;45.30;64.75;;
70454;Laerm;57915;47.174;14.680;2023-03-24T04:18:53;51.07;43.98;66.56;;
70454;Laerm;57915;47.174;14.680;2023-03-24T04:20:01;48.96;43.76;64.09;;
70454;Laerm;57915;47.174;14.680;2023-03-24T04:21:18;59.49;46.19;70.09;;
70454;Laerm;57915;47.174;14.680;2023-03-24T04:22:30;49.47;43.81;56.71;;
70454;Laerm;57915;47.174;14.680;2023-03-24T04:23:40;56.42;44.32;67.63;;
70454;Laerm;57915;47.174;14.680;2023-03-24T04:24:45;62.18;43.02;72.03;;
70454;Laerm;57915;47.174;14.680;2023-03-24T04:25:50;50.12;42.88;65.55;;
70454;Laerm;57915;47.174;14.680;2023-03-24T04:26:56;55.57;43.39;69.10;;
70454;Laerm;57915;47.174;14.680;2023-03-24T04:28:01;63.04;43.38;77.73;;
70454;Laerm;57915;47.174;14.680;2023-03-24T04:29:07;59.69;44.71;71.49;;
70454;Laerm;57915;47.174;14.680;2023-03-24T04:30:13;56.59;43.77;67.83;;
70454;Laerm;57915;47.174;14.680;2023-03-24T04:31:17;61.00;45.30;69.27;;
70454;Laerm;57915;47.174;14.680;2023-03-24T04:32:26;60.21;45.75;69.62;;
70454;Laerm;57915;47.174;14.680;2023-03-24T04:33:32;57.88;44.71;68.68;;
70454;Laerm;57915;47.174;14.680;2023-03-24T04:34:39;63.12;46.07;73.96;;
70454;Laerm;57915;47.174;14.680;2023-03-24T04:35:41;56.56;45.10;67.94;;
70454;Laerm;57915;47.174;14.680;2023-03-24T04:36:44;57.66;44.59;67.56;;
70454;Laerm;57915;47.174;14.680;2023-03-24T04:37:49;60.30;47.78;67.72;;
70454;Laerm;57915;47.174;14.680;2023-03-24T04:38:50;61.57;44.48;69.53;;
70454;Laerm;57915;47.174;14.680;2023-03-24T04:39:54;56.49;45.34;68.82;;
70454;Laerm;57915;47.174;14.680;2023-03-24T04:40:57;60.29;45.18;70.74;;
70454;Laerm;57915;47.174;14.680;2023-03-24T04:42:01;57.87;45.45;69.92;;
70454;Laerm;57915;47.174;14.680;2023-03-24T04:43:03;52.74;44.05;62.81;;
70454;Laerm;57915;47.174;14.680;2023-03-24T04:44:06;58.04;44.75;68.45;;
70454;Laerm;57915;47.174;14.680;2023-03-24T04:45:07;60.46;43.20;71.50;;
70454;Laerm;57915;47.174;14.680;2023-03-24T04:46:10;48.15;44.45;54.89;;
70454;Laerm;57915;47.174;14.680;2023-03-24T04:47:11;59.62;44.88;70.51;;
70454;Laerm;57915;47.174;14.680;2023-03-24T04:48:13;56.28;44.21;66.73;;
70454;Laerm;57915;47.174;14.680;2023-03-24T04:49:13;61.27;45.21;72.12;;
70454;Laerm;57915;47.174;14.680;2023-03-24T04:50:16;48.87;43.29;59.11;;
70454;Laerm;57915;47.174;14.680;2023-03-24T04:51:29;58.37;44.07;67.90;;
70454;Laerm;57915;47.174;14.680;2023-03-24T04:52:31;62.43;44.45;74.03;;
70454;Laerm;57915;47.174;14.680;2023-03-24T04:53:32;50.15;45.25;59.61;;
70454;Laerm;57915;47.174;14.680;2023-03-24T04:54:33;56.89;43.33;68.92;;
70454;Laerm;57915;47.174;14.680;2023-03-24T04:55:38;53.99;43.31;66.01;;
70454;Laerm;57915;47.174;14.680;2023-03-24T04:56:45;56.83;44.09;69.94;;
70454;Laerm;57915;47.174;14.680;2023-03-24T04:57:46;52.67;46.12;57.95;;
70454;Laerm;57915;47.174;14.680;2023-03-24T04:58:48;58.81;44.56;70.32;;
70454;Laerm;57915;47.174;14.680;2023-03-24T04:59:48;48.60;42.44;59.26;;
70454;Laerm;57915;47.174;14.680;2023-03-24T05:00:50;59.50;43.32;70.72;;
70454;Laerm;57915;47.174;14.680;2023-03-24T05:01:52;54.44;43.74;68.77;;
70454;Laerm;57915;47.174;14.680;2023-03-24T05:02:53;56.82;43.33;69.38;;
70454;Laerm;57915;47.174;14.680;2023-03-24T05:03:54;52.09;43.95;65.60;;
70454;Laerm;57915;47.174;14.680;2023-03-24T05:04:55;60.53;44.30;69.72;;
70454;Laerm;57915;47.174;14.680;2023-03-24T05:05:57;60.08;44.61;71.16;;
70454;Laerm;57915;47.174;14.680;2023-03-24T05:06:58;56.18;43.76;68.17;;
70454;Laerm;57915;47.174;14.680;2023-03-24T05:08:00;62.44;45.33;71.66;;
70454;Laerm;57915;47.174;14.680;2023-03-24T05:09:01;57.14;45.79;68.44;;
70454;Laerm;57915;47.174;14.680;2023-03-24T05:10:04;59.53;44.77;69.93;;
70454;Laerm;57915;47.174;14.680;2023-03-24T05:11:05;56.86;44.59;68.33;;
70454;Laerm;57915;47.174;14.680;2023-03-24T05:12:06;54.05;42.76;67.37;;
70454;Laerm;57915;47.174;14.680;2023-03-24T05:13:07;61.42;44.87;71.80;;
70454;Laerm;57915;47.174;14.680;2023-03-24T05:14:09;50.27;44.10;62.88;;
70454;Laerm;57915;47.174;14.680;2023-03-24T05:15:10;57.73;44.77;67.11;;
70454;Laerm;57915;47.174;14.680;2023-03-24T05:16:11;61.30;45.92;68.81;;
70454;Laerm;57915;47.174;14.680;2023-03-24T05:17:13;52.05;44.68;63.50;;
70454;Laerm;57915;47.174;14.680;2023-03-24T05:18:14;61.93;49.05;71.73;;
70454;Laerm;57915;47.174;14.680;2023-03-24T05:19:15;60.07;44.60;71.82;;
70454;Laerm;57915;47.174;14.680;2023-03-24T05:20:16;62.21;43.31;72.27;;
70454;Laerm;57915;47.174;14.680;2023-03-24T05:21:17;59.45;45.15;69.37;;
70454;Laerm;57915;47.174;14.680;2023-03-24T05:22:19;61.46;44.81;71.60;;
70454;Laerm;57915;47.174;14.680;2023-03-24T05:23:20;60.97;44.08;73.24;;
70454;Laerm;57915;47.174;14.680;2023-03-24T05:24:22;57.20;44.36;68.74;;
70454;Laerm;57915;47.174;14.680;2023-03-24T05:25:22;57.18;43.89;67.79;;
70454;Laerm;57915;47.174;14.680;2023-03-24T05:26:23;56.54;43.84;67.67;;
70454;Laerm;57915;47.174;14.680;2023-03-24T05:27:25;57.72;43.21;68.36;;
70454;Laerm;57915;47.174;14.680;2023-03-24T05:28:27;59.52;44.90;70.27;;
70454;Laerm;57915;47.174;14.680;2023-03-24T05:29:27;60.62;44.54;71.76;;
70454;Laerm;57915;47.174;14.680;2023-03-24T05:30:29;56.37;44.34;67.18;;
70454;Laerm;57915;47.174;14.680;2023-03-24T05:31:29;58.17;46.53;71.19;;
70454;Laerm;57915;47.174;14.680;2023-03-24T05:32:32;62.67;48.26;70.47;;
70454;Laerm;57915;47.174;14.680;2023-03-24T05:33:33;60.08;44.71;68.80;;
70454;Laerm;57915;47.174;14.680;2023-03-24T05:34:34;61.25;45.16;70.22;;
70454;Laerm;57915;47.174;14.680;2023-03-24T05:35:35;55.87;44.26;72.24;;
70454;Laerm;57915;47.174;14.680;2023-03-24T05:36:36;53.02;44.11;66.20;;
70454;Laerm;57915;47.174;14.680;2023-03-24T05:37:37;57.34;45.41;69.55;;
70454;Laerm;57915;47.174;14.680;2023-03-24T05:38:38;60.39;44.65;73.89;;
70454;Laerm;57915;47.174;14.680;2023-03-24T05:39:39;60.06;44.11;69.52;;
70454;Laerm;57915;47.174;14.680;2023-03-24T05:40:41;59.23;45.60;70.91;;
70454;Laerm;57915;47.174;14.680;2023-03-24T05:41:41;56.40;46.59;67.57;;
70454;Laerm;57915;47.174;14.680;2023-03-24T05:42:43;58.76;46.19;71.25;;
70454;Laerm;57915;47.174;14.680;2023-03-24T05:43:43;53.83;45.66;63.68;;
70454;Laerm;57915;47.174;14.680;2023-03-24T05:44:44;48.86;44.49;56.96;;
70454;Laerm;57915;47.174;14.680;2023-03-24T05:45:45;58.06;44.52;70.84;;
70454;Laerm;57915;47.174;14.680;2023-03-24T05:46:47;55.87;45.05;67.55;;
70454;Laerm;57915;47.174;14.680;2023-03-24T05:47:48;60.76;45.66;72.25;;
70454;Laerm;57915;47.174;14.680;2023-03-24T05:48:50;59.79;45.94;68.82;;
70454;Laerm;57915;47.174;14.680;2023-03-24T05:49:51;59.91;45.37;68.65;;
70454;Laerm;57915;47.174;14.680;2023-03-24T05:50:52;64.27;50.36;71.85;;
70454;Laerm;57915;47.174;14.680;2023-03-24T05:51:53;61.79;46.34;70.27;;
70454;Laerm;57915;47.174;14.680;2023-03-24T05:52:54;61.39;47.72;68.78;;
70454;Laerm;57915;47.174;14.680;2023-03-24T05:53:55;50.57;44.93;57.91;;
70454;Laerm;57915;47.174;14.680;2023-03-24T05:54:56;64.90;52.22;73.28;;
70454;Laerm;57915;47.174;14.680;2023-03-24T05:55:57;61.59;45.62;73.26;;
70454;Laerm;57915;47.174;14.680;2023-03-24T05:56:58;62.84;45.42;72.05;;
70454;Laerm;57915;47.174;14.680;2023-03-24T05:57:59;57.71;44.90;69.10;;
70454;Laerm;57915;47.174;14.680;2023-03-24T05:59:02;60.29;46.56;70.03;;
70454;Laerm;57915;47.174;14.680;2023-03-24T06:00:03;61.26;44.85;70.21;;
70454;Laerm;57915;47.174;14.680;2023-03-24T06:01:07;55.73;46.48;65.15;;